Time;durP1;ratioP1;P1;durP2;ratioP2;P2;SDS_P1;SDS_P2;PMS_P1;PMS_P2;Temp;Humidity;BMP_temperature;BMP_pressure;BME280_temperature;BME280_humidity;BME280_pressure;Samples;Min_cycle;Max_cycle;Signal;HPM_P1;HPM_P2
2023/07/02 00:00:21;;;;;;;13.57;8.13;;;;;;;16.64;93.88;100640.00;4982359;28;20173;-80
2023/07/02 00:02:46;;;;;;;14.70;8.05;;;;;;;16.61;93.99;100635.00;4975249;28;20034;-80
2023/07/02 00:05:12;;;;;;;15.10;8.38;;;;;;;16.58;93.80;100632.66;4969349;28;20718;-79
2023/07/02 00:07:37;;;;;;;18.08;8.00;;;;;;;16.58;94.14;100636.16;4972295;28;20025;-80
2023/07/02 00:10:03;;;;;;;19.20;8.32;;;;;;;16.56;93.79;100635.47;4970625;28;20529;-80
2023/07/02 00:12:29;;;;;;;17.48;8.50;;;;;;;16.56;94.11;100634.63;4970926;28;20096;-80
2023/07/02 00:14:54;;;;;;;14.65;8.77;;;;;;;16.54;93.73;100631.31;4971811;28;20113;-81
2023/07/02 00:17:20;;;;;;;14.82;8.32;;;;;;;16.52;93.68;100634.13;4970383;28;20124;-80
2023/07/02 00:19:46;;;;;;;17.80;8.90;;;;;;;16.51;93.79;100647.56;4970980;28;20026;-81
2023/07/02 00:22:11;;;;;;;19.27;9.80;;;;;;;16.52;93.87;100638.59;4970349;28;20038;-81
2023/07/02 00:24:37;;;;;;;18.45;9.88;;;;;;;16.46;93.95;100631.28;4954300;28;20062;-81
2023/07/02 00:27:03;;;;;;;20.33;10.90;;;;;;;16.46;93.96;100629.44;4951984;28;20108;-79
2023/07/02 00:29:28;;;;;;;18.80;10.80;;;;;;;16.46;93.44;100628.63;4951827;28;20038;-80
2023/07/02 00:31:53;;;;;;;19.88;10.35;;;;;;;16.45;93.98;100621.63;4952262;28;20019;-80
2023/07/02 00:34:19;;;;;;;22.02;10.10;;;;;;;16.44;93.57;100619.97;4951594;28;20070;-79
2023/07/02 00:36:44;;;;;;;19.20;11.30;;;;;;;16.45;93.80;100621.63;4952312;28;20063;-78
2023/07/02 00:39:13;;;;;;;22.45;11.88;;;;;;;16.44;92.96;100635.91;4952047;28;20030;-78
2023/07/02 00:41:40;;;;;;;19.85;11.27;;;;;;;16.42;93.09;100621.94;4956629;28;20031;-79
2023/07/02 00:44:05;;;;;;;22.48;11.70;;;;;;;16.39;93.47;100628.38;4952812;28;20046;-80
2023/07/02 00:46:31;;;;;;;20.15;11.70;;;;;;;16.40;93.68;100624.72;4952640;28;20224;-80
2023/07/02 00:48:58;;;;;;;18.05;11.25;;;;;;;16.37;93.57;100630.34;4951844;28;20023;-79
2023/07/02 00:51:25;;;;;;;19.75;11.65;;;;;;;16.35;93.45;100642.13;4952759;28;20031;-79
2023/07/02 00:53:54;;;;;;;24.00;12.73;;;;;;;16.33;93.57;100641.44;4955656;28;20559;-79
2023/07/02 00:56:21;;;;;;;21.20;12.27;;;;;;;16.30;93.51;100640.78;4959270;28;20034;-79
2023/07/02 00:58:50;;;;;;;20.38;12.60;;;;;;;16.32;93.13;100642.44;4969352;28;20035;-79
2023/07/02 01:01:18;;;;;;;24.52;14.15;;;;;;;16.28;93.28;100641.91;4986433;28;20065;-79
2023/07/02 01:04:12;;;;;;;24.75;13.30;;;;;;;16.29;93.18;100647.06;4975562;28;20518;-79
2023/07/02 01:06:41;;;;;;;25.13;13.60;;;;;;;16.21;93.44;100641.72;4984689;28;20562;-80
2023/07/02 01:09:07;;;;;;;26.20;13.95;;;;;;;16.21;93.99;100649.69;4970285;28;20014;-80
2023/07/02 01:11:36;;;;;;;24.55;14.43;;;;;;;16.17;93.51;100643.00;4971009;28;20035;-79
2023/07/02 01:14:11;;;;;;;22.08;14.27;;;;;;;16.14;93.97;100651.28;4970754;28;20037;-79
2023/07/02 01:16:42;;;;;;;28.50;15.20;;;;;;;16.11;93.60;100656.91;4968701;28;20157;-79
2023/07/02 01:19:13;;;;;;;27.80;14.50;;;;;;;16.10;93.76;100659.72;4970735;28;20038;-80
2023/07/02 01:21:39;;;;;;;24.70;15.13;;;;;;;16.06;94.03;100653.88;4969689;28;20157;-79
2023/07/02 01:24:05;;;;;;;28.80;16.38;;;;;;;16.04;94.17;100661.16;4968617;28;20109;-79
2023/07/02 01:26:34;;;;;;;30.05;15.93;;;;;;;16.01;94.31;100664.13;4970473;28;20022;-79
2023/07/02 01:29:16;;;;;;;28.60;16.05;;;;;;;15.98;94.96;100657.28;4977444;28;20109;-79
2023/07/02 01:31:41;;;;;;;26.45;16.05;;;;;;;15.98;94.91;100661.75;4975511;28;20545;-79
2023/07/02 01:34:10;;;;;;;28.13;16.38;;;;;;;15.97;95.08;100671.53;4969511;28;20047;-79
2023/07/02 01:36:36;;;;;;;26.95;16.13;;;;;;;15.97;95.30;100668.88;4955336;28;20423;-79
2023/07/02 01:39:02;;;;;;;29.40;17.42;;;;;;;15.96;95.50;100663.72;4969536;28;20117;-79
2023/07/02 01:41:28;;;;;;;31.63;17.05;;;;;;;15.93;95.69;100678.13;4988754;28;20399;-79
2023/07/02 01:43:53;;;;;;;35.30;16.90;;;;;;;15.92;95.62;100678.28;4976955;28;20757;-78
2023/07/02 01:46:18;;;;;;;27.75;17.35;;;;;;;15.93;95.70;100672.00;4977347;28;20035;-78
2023/07/02 01:48:44;;;;;;;30.40;17.50;;;;;;;15.92;96.16;100676.47;4977459;28;20029;-78
2023/07/02 01:51:09;;;;;;;31.13;17.55;;;;;;;15.90;96.34;100674.94;4976553;28;20053;-79
2023/07/02 01:53:34;;;;;;;29.05;17.95;;;;;;;15.86;96.33;100678.91;4977882;28;20038;-78
2023/07/02 01:56:00;;;;;;;32.83;18.50;;;;;;;15.87;96.46;100669.94;4975692;28;20077;-80
2023/07/02 01:58:25;;;;;;;30.67;18.42;;;;;;;15.86;96.91;100678.91;4976735;28;20023;-79
2023/07/02 02:00:51;;;;;;;32.35;18.27;;;;;;;15.83;97.19;100679.19;4990350;28;20113;-79
2023/07/02 02:03:16;;;;;;;33.55;19.13;;;;;;;15.84;97.22;100678.22;4992038;28;20030;-79
2023/07/02 02:05:41;;;;;;;31.00;19.48;;;;;;;15.79;97.55;100678.66;4978543;28;20058;-79
2023/07/02 02:08:10;;;;;;;35.38;18.92;;;;;;;15.81;97.14;100675.88;4979651;28;20479;-78
2023/07/02 02:10:35;;;;;;;29.25;18.83;;;;;;;15.78;97.66;100674.34;4990597;28;20386;-80
2023/07/02 02:13:01;;;;;;;32.22;19.05;;;;;;;15.80;98.09;100674.19;4984361;28;20030;-79
2023/07/02 02:15:26;;;;;;;32.17;20.00;;;;;;;15.80;97.93;100684.81;4986736;28;20438;-78
2023/07/02 02:17:52;;;;;;;36.97;20.77;;;;;;;15.76;98.28;100683.44;4992998;28;20026;-78
2023/07/02 02:20:17;;;;;;;33.47;18.63;;;;;;;15.75;98.26;100682.63;4982227;28;20031;-79
2023/07/02 02:22:42;;;;;;;33.92;19.42;;;;;;;15.72;98.43;100682.09;4985206;28;20030;-79
2023/07/02 02:25:08;;;;;;;33.45;19.77;;;;;;;15.70;98.89;100678.75;4987325;28;20066;-79
2023/07/02 02:27:33;;;;;;;33.70;19.48;;;;;;;15.63;99.18;100679.34;4992248;28;20039;-79
2023/07/02 02:29:59;;;;;;;33.75;20.05;;;;;;;15.59;99.52;100693.88;4985386;28;20471;-79
2023/07/02 02:32:25;;;;;;;34.42;20.02;;;;;;;15.55;99.69;100686.34;4983721;28;20037;-79
2023/07/02 02:34:50;;;;;;;34.60;20.23;;;;;;;15.53;99.78;100688.31;4991797;28;20050;-79
2023/07/02 02:37:15;;;;;;;38.20;20.20;;;;;;;15.49;99.90;100687.78;4982988;28;20049;-78
2023/07/02 02:39:45;;;;;;;35.25;20.20;;;;;;;15.44;100.00;100695.34;4989077;28;20077;-78
2023/07/02 02:42:10;;;;;;;32.22;19.65;;;;;;;15.40;100.00;100696.63;4976145;28;20058;-78
2023/07/02 02:44:35;;;;;;;35.50;20.27;;;;;;;15.35;100.00;100690.94;4982066;28;20471;-78
2023/07/02 02:47:01;;;;;;;35.17;20.48;;;;;;;15.30;100.00;100702.00;4982725;28;20066;-78
2023/07/02 02:49:26;;;;;;;29.10;19.45;;;;;;;15.31;100.00;100702.81;4972361;28;20019;-78
2023/07/02 02:51:51;;;;;;;38.08;20.90;;;;;;;15.24;100.00;100705.22;4989792;28;20105;-80
2023/07/02 02:54:17;;;;;;;33.50;20.17;;;;;;;15.16;100.00;100709.56;4988360;28;20037;-80
2023/07/02 02:56:42;;;;;;;34.20;20.35;;;;;;;15.14;100.00;100700.94;4980709;28;20106;-78
2023/07/02 02:59:07;;;;;;;36.10;20.35;;;;;;;15.14;100.00;100708.88;4985598;28;20034;-78
2023/07/02 03:01:33;;;;;;;35.13;20.40;;;;;;;15.10;100.00;100707.50;4987544;28;20057;-78
2023/07/02 03:03:59;;;;;;;38.45;21.17;;;;;;;15.12;100.00;100716.97;4972693;28;20058;-78
2023/07/02 03:06:24;;;;;;;37.47;20.83;;;;;;;15.04;100.00;100724.84;4982387;28;20034;-78
2023/07/02 03:08:49;;;;;;;34.63;20.30;;;;;;;15.07;100.00;100715.75;4990791;28;20041;-79
2023/07/02 03:11:15;;;;;;;33.35;20.98;;;;;;;15.02;100.00;100714.38;4979915;28;20030;-79
2023/07/02 03:13:40;;;;;;;34.78;20.58;;;;;;;14.96;100.00;100722.91;4990168;28;20041;-79
2023/07/02 03:16:06;;;;;;;29.52;19.13;;;;;;;14.98;100.00;100731.53;4989455;28;20053;-79
2023/07/02 03:18:31;;;;;;;34.95;20.13;;;;;;;14.95;100.00;100734.50;4981305;28;20031;-79
2023/07/02 03:20:57;;;;;;;34.05;20.80;;;;;;;14.92;100.00;100733.94;4969754;28;20039;-79
2023/07/02 03:23:22;;;;;;;40.80;20.35;;;;;;;14.89;100.00;100737.72;4983232;28;20663;-79
2023/07/02 03:25:48;;;;;;;41.92;20.67;;;;;;;14.84;100.00;100744.44;4973278;28;20028;-79
2023/07/02 03:28:14;;;;;;;33.97;19.92;;;;;;;14.85;100.00;100744.28;4986292;28;20046;-79
2023/07/02 03:30:39;;;;;;;29.83;19.25;;;;;;;14.85;100.00;100741.63;4977335;28;20023;-79
2023/07/02 03:33:04;;;;;;;31.33;18.50;;;;;;;14.82;100.00;100752.53;4992708;28;20041;-79
2023/07/02 03:35:30;;;;;;;32.33;18.08;;;;;;;14.84;100.00;100749.72;4987572;28;20082;-79
2023/07/02 03:37:57;;;;;;;33.97;18.35;;;;;;;14.82;100.00;100741.09;4973420;28;20384;-79
2023/07/02 03:40:22;;;;;;;30.40;18.60;;;;;;;14.78;100.00;100756.41;4974439;28;20027;-79
2023/07/02 03:42:48;;;;;;;33.22;18.13;;;;;;;14.80;100.00;100756.25;4972253;28;20530;-78
2023/07/02 03:45:13;;;;;;;33.38;18.77;;;;;;;14.72;99.31;100762.28;4971885;28;20390;-79
2023/07/02 03:47:39;;;;;;;29.95;17.83;;;;;;;14.72;98.30;100751.69;4972685;28;20030;-80
2023/07/02 03:50:04;;;;;;;29.27;17.10;;;;;;;14.69;98.21;100751.97;4972736;28;20072;-81
2023/07/02 03:52:30;;;;;;;28.27;16.48;;;;;;;14.69;97.68;100757.25;4971502;28;20027;-81
2023/07/02 03:54:55;;;;;;;26.30;16.40;;;;;;;14.70;96.87;100758.94;4972294;28;20107;-80
2023/07/02 03:57:20;;;;;;;31.17;17.00;;;;;;;14.69;96.64;100758.09;4959707;28;20117;-80
2023/07/02 03:59:46;;;;;;;27.20;16.05;;;;;;;14.72;96.02;100765.75;4970233;28;20026;-81
2023/07/02 04:02:11;;;;;;;29.35;16.13;;;;;;;14.68;95.09;100763.53;4971998;28;20545;-80
2023/07/02 04:04:37;;;;;;;28.85;15.75;;;;;;;14.68;95.00;100771.47;4970908;28;20026;-79
2023/07/02 04:07:02;;;;;;;27.33;15.30;;;;;;;14.64;95.19;100770.09;4970926;28;20117;-79
2023/07/02 04:09:28;;;;;;;29.90;15.23;;;;;;;14.67;95.02;100764.50;4970943;28;20026;-79
2023/07/02 04:11:53;;;;;;;25.48;15.23;;;;;;;14.76;94.33;100771.59;4969979;28;20499;-80
2023/07/02 04:14:18;;;;;;;28.40;15.80;;;;;;;14.81;93.95;100773.81;4956647;28;20376;-78
2023/07/02 04:16:45;;;;;;;31.75;15.90;;;;;;;14.75;93.52;100783.19;4953266;28;20027;-81
2023/07/02 04:19:10;;;;;;;31.40;16.17;;;;;;;14.77;93.10;100770.63;4952295;28;20030;-78
2023/07/02 04:21:35;;;;;;;27.85;16.17;;;;;;;14.96;93.95;100773.25;4953490;28;20031;-78
2023/07/02 04:24:01;;;;;;;27.17;16.10;;;;;;;14.92;92.52;100779.81;4952976;28;20571;-79
2023/07/02 04:26:26;;;;;;;25.25;15.00;;;;;;;15.04;92.13;100776.00;4952273;28;20495;-78
2023/07/02 04:28:53;;;;;;;33.05;17.50;;;;;;;14.93;91.82;100776.19;4954561;28;20031;-79
2023/07/02 04:31:19;;;;;;;27.50;15.85;;;;;;;14.96;91.72;100777.72;4955097;28;20055;-79
2023/07/02 04:33:44;;;;;;;29.85;15.85;;;;;;;14.94;91.87;100777.84;4952017;28;20495;-78
2023/07/02 04:36:10;;;;;;;27.65;15.70;;;;;;;14.91;91.83;100779.97;4969173;28;20399;-81
2023/07/02 04:38:35;;;;;;;29.40;16.20;;;;;;;14.99;92.05;100780.06;4972405;28;20031;-78
2023/07/02 04:41:05;;;;;;;28.30;15.27;;;;;;;14.96;91.46;100785.66;4969867;28;20037;-81
2023/07/02 04:43:33;;;;;;;27.63;15.32;;;;;;;14.96;90.86;100785.66;4971535;28;20514;-79
2023/07/02 04:45:59;;;;;;;27.70;16.10;;;;;;;14.95;90.92;100784.00;4968055;28;20117;-79
2023/07/02 04:48:24;;;;;;;32.15;15.25;;;;;;;14.97;90.64;100793.47;4965541;28;20153;-79
2023/07/02 04:50:49;;;;;;;30.13;15.13;;;;;;;14.95;90.56;100800.72;4982456;28;20057;-79
2023/07/02 04:53:15;;;;;;;26.85;14.98;;;;;;;14.95;91.27;100790.13;4981469;28;20058;-79
2023/07/02 04:55:41;;;;;;;29.85;15.25;;;;;;;14.99;90.66;100799.47;4970536;28;20034;-79
2023/07/02 04:58:09;;;;;;;26.98;14.73;;;;;;;15.01;90.19;100791.38;4971709;28;20031;-79
2023/07/02 05:00:35;;;;;;;29.92;14.98;;;;;;;15.04;89.22;100805.16;4969297;28;20018;-79
2023/07/02 05:03:00;;;;;;;25.52;14.52;;;;;;;15.10;88.54;100805.56;4955897;28;20058;-79
2023/07/02 05:05:26;;;;;;;28.52;14.80;;;;;;;15.13;88.25;100808.75;4951744;28;20058;-79
2023/07/02 05:07:51;;;;;;;26.17;14.88;;;;;;;15.20;87.74;100809.00;4951294;28;20023;-78
2023/07/02 05:10:16;;;;;;;27.13;14.85;;;;;;;15.29;87.23;100802.88;4961012;28;20029;-78
2023/07/02 05:12:42;;;;;;;25.55;14.40;;;;;;;15.33;86.45;100814.84;4970833;28;20110;-79
2023/07/02 05:15:11;;;;;;;22.23;13.27;;;;;;;15.38;86.96;100817.06;4970819;28;20030;-79
2023/07/02 05:17:37;;;;;;;23.25;13.07;;;;;;;15.41;83.76;100814.97;4967660;28;20026;-79
2023/07/02 05:20:04;;;;;;;26.23;12.68;;;;;;;15.43;82.88;100820.94;4952110;28;20400;-79
2023/07/02 05:22:30;;;;;;;25.70;12.75;;;;;;;15.42;80.55;100821.94;4951250;28;20035;-79
2023/07/02 05:24:55;;;;;;;22.40;11.85;;;;;;;15.46;80.71;100820.66;4970529;28;20023;-79
2023/07/02 05:27:20;;;;;;;27.20;12.63;;;;;;;15.51;80.03;100828.16;4971277;28;20030;-79
2023/07/02 05:29:46;;;;;;;22.92;11.60;;;;;;;15.55;80.29;100830.38;4970409;28;20226;-79
2023/07/02 05:32:11;;;;;;;22.50;11.60;;;;;;;15.60;79.46;100822.00;4970988;28;20027;-79
2023/07/02 05:34:39;;;;;;;26.95;11.07;;;;;;;15.68;79.17;100829.25;4960307;28;20047;-79
2023/07/02 05:37:05;;;;;;;21.38;11.02;;;;;;;15.71;77.63;100835.13;4951913;28;20078;-79
2023/07/02 05:39:31;;;;;;;22.08;10.98;;;;;;;15.73;77.22;100832.31;4951481;28;20027;-79
2023/07/02 05:41:56;;;;;;;24.90;10.70;;;;;;;15.80;77.60;100844.00;4951974;28;20317;-79
2023/07/02 05:44:22;;;;;;;20.38;10.32;;;;;;;15.86;75.71;100843.41;4950861;28;20031;-78
2023/07/02 05:46:47;;;;;;;21.17;10.57;;;;;;;15.93;76.80;100849.78;4960780;28;20437;-75
2023/07/02 05:49:12;;;;;;;19.83;10.20;;;;;;;15.98;75.65;100847.53;4969018;28;20450;-75
2023/07/02 05:51:38;;;;;;;22.05;10.38;;;;;;;16.02;75.01;100854.22;4969905;28;20038;-77
2023/07/02 05:54:03;;;;;;;21.67;9.48;;;;;;;16.09;74.45;100844.69;4970788;28;20084;-76
2023/07/02 05:56:28;;;;;;;21.27;10.27;;;;;;;16.14;74.41;100853.03;4970270;28;20117;-76
2023/07/02 05:58:54;;;;;;;21.45;9.98;;;;;;;16.21;74.45;100853.25;4969835;28;20023;-75
2023/07/02 06:01:19;;;;;;;21.38;9.57;;;;;;;16.26;74.15;100862.44;4970190;28;20026;-75
2023/07/02 06:03:45;;;;;;;19.45;9.75;;;;;;;16.35;74.62;100865.19;4971604;28;20027;-76
2023/07/02 06:06:11;;;;;;;20.60;10.02;;;;;;;16.40;73.45;100858.44;4968989;28;20031;-77
2023/07/02 06:08:36;;;;;;;19.55;9.63;;;;;;;16.46;73.92;100865.00;4975420;28;20026;-76
2023/07/02 06:11:02;;;;;;;19.05;9.77;;;;;;;16.55;73.04;100872.03;4971466;28;20030;-76
2023/07/02 06:13:27;;;;;;;21.67;9.27;;;;;;;16.61;71.85;100863.47;4981795;28;20050;-76
2023/07/02 06:15:52;;;;;;;22.00;9.52;;;;;;;16.63;71.39;100880.09;4969062;28;20061;-78
2023/07/02 06:18:18;;;;;;;17.67;9.80;;;;;;;16.72;72.23;100871.22;4960344;28;20031;-78
2023/07/02 06:20:44;;;;;;;21.90;9.15;;;;;;;16.79;72.02;100871.44;4968943;28;20023;-78
2023/07/02 06:23:09;;;;;;;17.92;9.20;;;;;;;16.85;72.13;100865.53;4970119;28;20070;-79
2023/07/02 06:25:34;;;;;;;19.40;8.68;;;;;;;16.88;71.46;100868.72;4969790;28;20023;-79
2023/07/02 06:28:00;;;;;;;18.08;9.48;;;;;;;16.96;71.88;100875.09;4970799;28;20023;-79
2023/07/02 06:30:26;;;;;;;18.25;8.30;;;;;;;16.98;69.89;100873.94;4957878;28;20477;-78
2023/07/02 06:32:52;;;;;;;18.70;8.55;;;;;;;17.04;69.72;100883.13;4973310;28;20436;-79
2023/07/02 06:35:17;;;;;;;17.08;8.13;;;;;;;17.10;71.17;100888.66;4972656;28;20082;-78
2023/07/02 06:37:43;;;;;;;17.33;8.50;;;;;;;17.17;70.07;100894.19;4984541;28;20034;-78
2023/07/02 06:40:09;;;;;;;18.27;8.27;;;;;;;17.21;69.87;100882.25;4987456;28;20474;-78
2023/07/02 06:42:38;;;;;;;18.80;8.07;;;;;;;17.23;69.31;100893.59;4969672;28;20081;-78
2023/07/02 06:45:04;;;;;;;18.20;7.93;;;;;;;17.29;70.18;100890.31;4964034;28;20418;-77
2023/07/02 06:47:29;;;;;;;19.98;8.20;;;;;;;17.31;68.58;100890.97;4980516;28;20039;-80
2023/07/02 06:49:54;;;;;;;16.73;8.75;;;;;;;17.31;67.49;100890.97;4958563;28;20022;-81
2023/07/02 06:52:20;;;;;;;18.17;8.23;;;;;;;17.36;67.28;100899.31;4982146;28;20030;-80
2023/07/02 06:54:46;;;;;;;15.57;8.52;;;;;;;17.45;68.39;100897.53;4967364;28;20066;-80
2023/07/02 06:57:12;;;;;;;21.15;8.48;;;;;;;17.47;67.52;100912.34;4962490;28;20030;-79
2023/07/02 06:59:38;;;;;;;18.73;8.55;;;;;;;17.55;67.14;100909.75;4960332;28;20078;-80
2023/07/02 07:02:03;;;;;;;17.08;8.73;;;;;;;17.58;66.18;100910.41;4982093;28;20065;-78
2023/07/02 07:04:29;;;;;;;20.52;8.70;;;;;;;17.60;67.85;100908.44;4984817;28;20117;-79
2023/07/02 07:06:56;;;;;;;17.35;8.40;;;;;;;17.75;67.02;100909.56;4948703;28;20038;-78
2023/07/02 07:09:22;;;;;;;19.13;8.68;;;;;;;17.83;67.37;100914.94;4963216;28;20019;-78
2023/07/02 07:11:47;;;;;;;17.55;8.05;;;;;;;17.81;64.70;100922.25;4963929;28;20102;-79
2023/07/02 07:14:13;;;;;;;17.08;7.80;;;;;;;17.80;65.28;100918.75;4970562;28;20431;-79
2023/07/02 07:16:38;;;;;;;19.70;7.70;;;;;;;17.84;64.03;100925.41;4968081;28;20027;-79
2023/07/02 07:19:04;;;;;;;14.70;7.53;;;;;;;17.95;64.11;100921.63;4971917;28;20053;-80
2023/07/02 07:21:29;;;;;;;16.00;6.97;;;;;;;18.00;64.12;100929.97;4985895;28;20034;-80
2023/07/02 07:23:55;;;;;;;15.38;6.80;;;;;;;18.05;64.23;100933.03;4976784;28;20069;-79
2023/07/02 07:26:20;;;;;;;16.00;7.38;;;;;;;18.12;64.41;100934.03;4967604;28;20076;-78
2023/07/02 07:28:45;;;;;;;16.23;7.32;;;;;;;18.19;63.93;100930.72;4980968;28;20019;-78
2023/07/02 07:31:11;;;;;;;17.65;7.70;;;;;;;18.24;63.18;100939.06;4974759;28;20220;-81
2023/07/02 07:33:36;;;;;;;16.13;7.40;;;;;;;18.25;62.13;100943.41;4976408;28;20062;-79
2023/07/02 07:36:01;;;;;;;16.83;7.40;;;;;;;18.30;61.78;100941.09;4974947;28;20388;-80
2023/07/02 07:38:27;;;;;;;13.85;6.97;;;;;;;18.40;62.54;100947.09;4995804;28;20034;-79
2023/07/02 07:40:52;;;;;;;12.55;6.80;;;;;;;18.50;64.38;100950.50;4980108;28;20110;-78
2023/07/02 07:43:18;;;;;;;13.52;7.10;;;;;;;18.55;61.02;100955.34;4980553;28;20081;-79
2023/07/02 07:45:43;;;;;;;17.95;6.72;;;;;;;18.64;61.24;100955.22;4980952;28;20189;-80
2023/07/02 07:48:09;;;;;;;15.63;6.70;;;;;;;18.69;60.31;100947.56;4984891;28;20057;-79
2023/07/02 07:50:34;;;;;;;15.80;6.72;;;;;;;18.69;60.62;100958.22;4967754;28;20046;-79
2023/07/02 07:53:00;;;;;;;15.90;6.72;;;;;;;18.61;60.31;100955.50;4969082;28;20372;-80
2023/07/02 07:55:25;;;;;;;15.45;6.70;;;;;;;18.66;60.08;100955.88;4972594;28;20039;-79
2023/07/02 07:57:50;;;;;;;15.30;6.68;;;;;;;18.69;60.47;100958.22;4974217;28;20033;-80
2023/07/02 08:00:17;;;;;;;14.02;6.90;;;;;;;18.63;58.21;100964.22;4971587;28;20376;-80
2023/07/02 08:02:43;;;;;;;14.13;6.70;;;;;;;18.58;57.98;100960.34;4961780;28;20046;-80
2023/07/02 08:05:09;;;;;;;15.45;6.28;;;;;;;18.62;56.57;100962.53;4983374;28;20030;-80
2023/07/02 08:07:34;;;;;;;15.73;6.75;;;;;;;18.71;57.79;100960.72;4973699;28;20121;-79
2023/07/02 08:10:00;;;;;;;12.77;6.32;;;;;;;18.77;56.74;100960.91;4970650;28;20094;-78
2023/07/02 08:12:29;;;;;;;12.52;6.85;;;;;;;18.78;57.40;100959.91;4977396;28;20506;-80
2023/07/02 08:14:55;;;;;;;15.18;6.88;;;;;;;18.85;57.92;100962.78;4985984;28;20027;-79
2023/07/02 08:17:20;;;;;;;11.55;6.07;;;;;;;18.97;57.01;100966.78;4985073;28;20434;-80
2023/07/02 08:19:46;;;;;;;10.95;6.47;;;;;;;18.94;56.58;100979.59;4978697;28;20041;-80
2023/07/02 08:22:11;;;;;;;15.65;6.88;;;;;;;19.00;56.95;100973.63;4985116;28;20026;-80
2023/07/02 08:24:37;;;;;;;12.27;6.72;;;;;;;19.00;56.21;100973.63;4981716;28;20476;-79
2023/07/02 08:27:03;;;;;;;13.68;5.70;;;;;;;18.99;55.58;100972.78;4973068;28;20030;-78
2023/07/02 08:29:29;;;;;;;14.15;6.45;;;;;;;19.03;57.31;100973.28;4984429;28;20030;-76
2023/07/02 08:31:55;;;;;;;13.38;6.72;;;;;;;19.11;56.54;100983.94;4980614;28;20035;-77
2023/07/02 08:34:20;;;;;;;12.23;6.60;;;;;;;19.08;55.88;100981.63;4974985;28;20553;-78
2023/07/02 08:36:46;;;;;;;12.55;6.22;;;;;;;19.08;55.80;100989.63;4977586;28;20022;-80
2023/07/02 08:39:11;;;;;;;15.32;6.57;;;;;;;19.11;56.60;100989.28;4985913;28;20036;-77
2023/07/02 08:41:47;;;;;;;13.07;6.65;;;;;;;19.23;56.27;100998.66;4986147;28;20026;-77
2023/07/02 08:44:14;;;;;;;12.70;6.53;;;;;;;19.13;53.03;100992.63;4969820;28;20019;-78
2023/07/02 08:46:44;;;;;;;13.10;6.38;;;;;;;19.14;52.92;100988.94;4978163;28;20023;-76
2023/07/02 08:49:09;;;;;;;13.18;6.10;;;;;;;19.12;51.48;100995.44;4987726;28;20042;-72
2023/07/02 08:51:34;;;;;;;11.23;6.20;;;;;;;19.13;51.59;101002.47;4977706;28;20023;-78
2023/07/02 08:54:01;;;;;;;10.48;5.97;;;;;;;19.06;51.40;100989.78;4979915;28;20145;-79
2023/07/02 08:56:26;;;;;;;14.65;6.35;;;;;;;19.09;50.89;100992.13;4970739;28;20022;-79
2023/07/02 08:58:52;;;;;;;12.80;5.80;;;;;;;19.25;50.88;101001.16;4987331;28;20048;-80
2023/07/02 09:01:18;;;;;;;12.95;6.15;;;;;;;19.33;51.28;100993.97;4977040;28;20120;-78
2023/07/02 09:03:43;;;;;;;13.00;6.05;;;;;;;19.52;51.13;100997.28;4990263;28;20495;-79
2023/07/02 09:06:10;;;;;;;11.25;5.75;;;;;;;19.65;47.77;100995.00;4988958;28;20034;-78
2023/07/02 09:08:37;;;;;;;11.80;5.78;;;;;;;19.70;48.56;100990.00;4990310;28;20116;-79
2023/07/02 09:11:20;;;;;;;13.00;6.40;;;;;;;19.78;50.75;100992.63;4990111;28;20102;-74
2023/07/02 09:13:50;;;;;;;12.65;5.55;;;;;;;19.67;50.83;100993.00;4966445;28;20057;-72
2023/07/02 09:16:30;;;;;;;11.73;5.88;;;;;;;19.71;51.28;100997.81;4976314;28;20479;-72
2023/07/02 09:19:13;;;;;;;11.95;5.88;;;;;;;19.75;51.71;100987.63;4988165;28;20037;-80
2023/07/02 09:21:49;;;;;;;13.68;5.82;;;;;;;20.07;49.63;100991.25;4985487;28;20113;-80
2023/07/02 09:24:21;;;;;;;14.40;5.90;;;;;;;20.20;47.63;100996.88;4974137;28;20027;-80
2023/07/02 09:26:49;;;;;;;10.88;5.60;;;;;;;20.08;47.39;100995.59;4980473;28;20390;-80
2023/07/02 09:29:31;;;;;;;11.57;5.63;;;;;;;20.02;48.72;100995.28;4986962;28;20537;-79
2023/07/02 09:32:04;;;;;;;11.88;5.95;;;;;;;20.03;49.73;100991.59;4983386;28;20546;-79
2023/07/02 09:34:31;;;;;;;12.68;6.32;;;;;;;20.35;48.31;100979.09;4989046;28;20073;-80
2023/07/02 09:36:57;;;;;;;13.25;6.00;;;;;;;20.41;49.18;100983.78;4975943;28;20027;-79
2023/07/02 09:39:29;;;;;;;11.80;6.28;;;;;;;20.31;49.97;100988.47;4978960;28;20483;-79
2023/07/02 09:41:57;;;;;;;9.85;5.65;;;;;;;20.20;49.25;100987.00;4983343;28;20026;-79
2023/07/02 09:44:28;;;;;;;14.20;6.15;;;;;;;20.14;49.84;100990.38;4989917;28;20033;-79
2023/07/02 09:47:01;;;;;;;13.60;6.00;;;;;;;20.18;50.20;100988.19;4967827;28;20391;-79
2023/07/02 09:49:27;;;;;;;;;;;;;;;20.51;51.91;100992.44;4964536;28;20022;-79
2023/07/02 09:51:53;;;;;;;12.18;6.18;;;;;;;20.44;49.29;100982.63;4963333;28;19913;-79
2023/07/02 09:54:20;;;;;;;13.30;5.95;;;;;;;20.59;50.23;100984.38;4964791;28;20093;-79
2023/07/02 09:56:47;;;;;;;14.40;5.65;;;;;;;20.45;49.67;100987.78;4974938;28;20088;-79
2023/07/02 09:59:13;;;;;;;13.93;6.28;;;;;;;20.38;51.62;100984.09;4987664;28;20474;-79
2023/07/02 10:01:39;;;;;;;12.43;6.47;;;;;;;20.43;51.98;100987.13;4989399;28;20685;-79
2023/07/02 10:04:15;;;;;;;9.38;5.57;;;;;;;20.58;50.76;100998.75;4988886;28;20054;-79
2023/07/02 10:06:53;;;;;;;13.52;6.20;;;;;;;20.67;51.04;101004.88;4991425;28;20037;-80
2023/07/02 10:09:20;;;;;;;13.90;6.15;;;;;;;20.75;51.74;100991.47;4976966;28;20022;-80
2023/07/02 10:11:47;;;;;;;14.43;5.80;;;;;;;20.95;51.69;101003.38;4985257;28;20505;-80
2023/07/02 10:14:13;;;;;;;13.50;6.82;;;;;;;20.93;49.35;100999.22;4980136;28;20073;-81
2023/07/02 10:16:55;;;;;;;14.68;6.70;;;;;;;20.84;51.83;101011.00;4989614;28;20022;-81
2023/07/02 10:19:21;;;;;;;15.00;6.65;;;;;;;20.42;49.46;101006.03;4988612;28;20180;-80
2023/07/02 10:21:48;;;;;;;12.73;6.45;;;;;;;20.38;52.32;101007.31;4985371;28;20022;-81
2023/07/02 10:24:16;;;;;;;16.13;6.72;;;;;;;20.23;51.25;101023.25;4990636;28;20102;-81
2023/07/02 10:26:55;;;;;;;12.30;6.28;;;;;;;20.38;52.19;101005.47;4983152;28;23659;-80
2023/07/02 10:29:24;;;;;;;12.90;6.57;;;;;;;20.55;50.86;101012.47;4970981;28;20026;-80
2023/07/02 10:31:51;;;;;;;13.80;6.95;;;;;;;20.79;49.86;101008.81;4992982;28;20049;-78
2023/07/02 10:34:28;;;;;;;16.25;6.70;;;;;;;21.02;49.79;101014.22;4991987;28;20085;-80
2023/07/02 10:36:54;;;;;;;11.43;6.72;;;;;;;20.76;48.65;101013.69;4993702;28;20026;-80
2023/07/02 10:39:20;;;;;;;11.63;6.30;;;;;;;20.68;50.02;101013.72;4984919;28;20490;-72
2023/07/02 10:41:46;;;;;;;13.00;6.43;;;;;;;20.70;49.81;101014.38;4985888;28;20081;-73
2023/07/02 10:44:13;;;;;;;17.70;7.10;;;;;;;20.45;49.86;101027.88;4976485;28;20085;-72
2023/07/02 10:46:49;;;;;;;13.75;6.65;;;;;;;20.34;50.70;101025.53;4985820;28;20034;-72
2023/07/02 10:49:17;;;;;;;12.57;6.80;;;;;;;20.19;49.62;101028.09;4972731;28;20026;-80
2023/07/02 10:51:42;;;;;;;16.30;7.28;;;;;;;20.17;49.87;101030.13;4970977;28;20062;-72
2023/07/02 10:54:08;;;;;;;19.13;7.50;;;;;;;20.27;50.36;101019.22;4972767;28;20074;-79
2023/07/02 10:56:35;;;;;;;16.60;7.82;;;;;;;20.26;50.75;101029.06;4979233;28;20025;-80
2023/07/02 10:59:01;;;;;;;16.77;7.60;;;;;;;20.47;50.36;101017.03;4976244;28;20030;-72
2023/07/02 11:01:28;;;;;;;15.77;7.70;;;;;;;20.71;51.92;101016.06;4973425;28;20663;-72
2023/07/02 11:04:01;;;;;;;15.25;8.00;;;;;;;21.00;50.81;101013.56;4974717;28;20093;-80
2023/07/02 11:06:27;;;;;;;16.67;8.20;;;;;;;21.49;49.22;101011.38;4982253;28;20037;-79
2023/07/02 11:08:55;;;;;;;16.25;8.00;;;;;;;21.33;49.03;101016.03;4977122;28;20073;-79